sensor_id;sensor_type;location;lat;lon;timestamp;pressure;altitude;pressure_sealevel;temperature;humidity
11888;BME280;6003;42.756;23.130;2022-11-20T00:00:39;156639.16;;;16.38;80.98
11888;BME280;6003;42.756;23.130;2022-11-20T00:03:06;156632.50;;;16.36;81.54
11888;BME280;6003;42.756;23.130;2022-11-20T00:05:33;156619.22;;;16.31;81.66
11888;BME280;6003;42.756;23.130;2022-11-20T00:08:00;156621.91;;;16.32;81.17
11888;BME280;6003;42.756;23.130;2022-11-20T00:10:26;156649.75;;;16.42;80.40
11888;BME280;6003;42.756;23.130;2022-11-20T00:12:53;156632.50;;;16.36;81.33
11888;BME280;6003;42.756;23.130;2022-11-20T00:15:21;156645.81;;;16.41;80.71
11888;BME280;6003;42.756;23.130;2022-11-20T00:17:48;156651.13;;;16.43;80.12
11888;BME280;6003;42.756;23.130;2022-11-20T00:20:15;156624.56;;;16.33;80.89
11888;BME280;6003;42.756;23.130;2022-11-20T00:22:42;156606.00;;;16.26;80.96
11888;BME280;6003;42.756;23.130;2022-11-20T00:25:23;156607.31;;;16.26;81.29
11888;BME280;6003;42.756;23.130;2022-11-20T00:27:50;156591.38;;;16.20;81.74
11888;BME280;6003;42.756;23.130;2022-11-20T00:30:17;156595.34;;;16.21;81.69
11888;BME280;6003;42.756;23.130;2022-11-20T00:32:45;156584.75;;;16.17;81.86
11888;BME280;6003;42.756;23.130;2022-11-20T00:35:12;156567.44;;;16.11;82.49
11888;BME280;6003;42.756;23.130;2022-11-20T00:37:39;156552.84;;;16.05;82.32
11888;BME280;6003;42.756;23.130;2022-11-20T00:40:07;156560.81;;;16.08;82.14
11888;BME280;6003;42.756;23.130;2022-11-20T00:42:34;156582.06;;;16.16;82.06
11888;BME280;6003;42.756;23.130;2022-11-20T00:45:00;156536.94;;;15.99;82.55
11888;BME280;6003;42.756;23.130;2022-11-20T00:47:30;156566.13;;;16.10;82.59
11888;BME280;6003;42.756;23.130;2022-11-20T00:49:58;156571.47;;;16.12;82.35
11888;BME280;6003;42.756;23.130;2022-11-20T00:52:25;156560.81;;;16.08;82.71
11888;BME280;6003;42.756;23.130;2022-11-20T00:55:24;156546.25;;;16.02;83.77
11888;BME280;6003;42.756;23.130;2022-11-20T00:57:51;156544.88;;;16.02;84.03
11888;BME280;6003;42.756;23.130;2022-11-20T01:00:18;156551.53;;;16.05;83.80
11888;BME280;6003;42.756;23.130;2022-11-20T01:02:45;156523.66;;;15.94;83.68
11888;BME280;6003;42.756;23.130;2022-11-20T01:05:13;156539.63;;;16.00;84.32
11888;BME280;6003;42.756;23.130;2022-11-20T01:07:40;156536.94;;;15.99;84.51
11888;BME280;6003;42.756;23.130;2022-11-20T01:10:08;156521.00;;;15.93;84.40
11888;BME280;6003;42.756;23.130;2022-11-20T01:12:34;156518.38;;;15.92;84.11
11888;BME280;6003;42.756;23.130;2022-11-20T01:15:01;156513.03;;;15.90;84.63
11888;BME280;6003;42.756;23.130;2022-11-20T01:17:28;156494.50;;;15.83;84.77
11888;BME280;6003;42.756;23.130;2022-11-20T01:19:55;156535.59;;;15.98;83.99
11888;BME280;6003;42.756;23.130;2022-11-20T01:22:23;156514.38;;;15.90;84.22
11888;BME280;6003;42.756;23.130;2022-11-20T01:24:50;156528.97;;;15.96;83.88
11888;BME280;6003;42.756;23.130;2022-11-20T01:27:16;156531.66;;;15.97;83.54
11888;BME280;6003;42.756;23.130;2022-11-20T01:29:43;156518.38;;;15.92;83.90
11888;BME280;6003;42.756;23.130;2022-11-20T01:32:10;156514.38;;;15.90;84.39
11888;BME280;6003;42.756;23.130;2022-11-20T01:34:37;156519.69;;;15.92;84.05
11888;BME280;6003;42.756;23.130;2022-11-20T01:37:04;156510.41;;;15.89;84.19
11888;BME280;6003;42.756;23.130;2022-11-20T01:39:32;156511.72;;;15.89;84.17
11888;BME280;6003;42.756;23.130;2022-11-20T01:41:59;156509.09;;;15.88;83.53
11888;BME280;6003;42.756;23.130;2022-11-20T01:44:49;156513.03;;;15.90;83.63
11888;BME280;6003;42.756;23.130;2022-11-20T01:47:21;156507.72;;;15.88;83.62
11888;BME280;6003;42.756;23.130;2022-11-20T01:49:54;156510.41;;;15.89;83.26
11888;BME280;6003;42.756;23.130;2022-11-20T01:52:24;156523.66;;;15.94;83.43
11888;BME280;6003;42.756;23.130;2022-11-20T01:55:00;156527.66;;;15.95;83.32
11888;BME280;6003;42.756;23.130;2022-11-20T01:57:30;156501.09;;;15.85;83.80
11888;BME280;6003;42.756;23.130;2022-11-20T02:00:04;156513.03;;;15.90;83.80
11888;BME280;6003;42.756;23.130;2022-11-20T02:02:32;156531.66;;;15.97;83.00
11888;BME280;6003;42.756;23.130;2022-11-20T02:05:04;156536.94;;;15.99;82.59
11888;BME280;6003;42.756;23.130;2022-11-20T02:07:36;156521.00;;;15.93;83.04
11888;BME280;6003;42.756;23.130;2022-11-20T02:10:05;156513.03;;;15.90;83.19
11888;BME280;6003;42.756;23.130;2022-11-20T02:12:33;156525.00;;;15.94;82.82
11888;BME280;6003;42.756;23.130;2022-11-20T02:18:26;156528.97;;;15.96;82.32
11888;BME280;6003;42.756;23.130;2022-11-20T02:20:56;156536.94;;;15.99;81.94
11888;BME280;6003;42.756;23.130;2022-11-20T02:23:29;156554.22;;;16.06;81.32
11888;BME280;6003;42.756;23.130;2022-11-20T02:26:02;156546.25;;;16.02;81.96
11888;BME280;6003;42.756;23.130;2022-11-20T02:28:31;156563.50;;;16.09;81.89
11888;BME280;6003;42.756;23.130;2022-11-20T02:30:59;156564.81;;;16.10;81.52
11888;BME280;6003;42.756;23.130;2022-11-20T02:33:27;156588.69;;;16.19;80.87
11888;BME280;6003;42.756;23.130;2022-11-20T02:35:54;156591.38;;;16.20;81.31
11888;BME280;6003;42.756;23.130;2022-11-20T02:38:20;156587.38;;;16.18;81.10
11888;BME280;6003;42.756;23.130;2022-11-20T02:40:47;156592.72;;;16.20;81.25
11888;BME280;6003;42.756;23.130;2022-11-20T02:43:16;156578.09;;;16.15;82.02
11888;BME280;6003;42.756;23.130;2022-11-20T02:45:43;156592.72;;;16.20;81.49
11888;BME280;6003;42.756;23.130;2022-11-20T02:48:10;156595.34;;;16.21;81.85
11888;BME280;6003;42.756;23.130;2022-11-20T02:50:38;156587.38;;;16.18;82.08
11888;BME280;6003;42.756;23.130;2022-11-20T02:53:05;156595.34;;;16.21;82.69
11888;BME280;6003;42.756;23.130;2022-11-20T02:55:32;156555.53;;;16.06;83.25
11888;BME280;6003;42.756;23.130;2022-11-20T02:58:00;156544.88;;;16.02;82.98
11888;BME280;6003;42.756;23.130;2022-11-20T03:00:28;156517.06;;;15.91;84.03
11888;BME280;6003;42.756;23.130;2022-11-20T03:02:55;156517.06;;;15.91;83.95
11888;BME280;6003;42.756;23.130;2022-11-20T03:05:21;156505.09;;;15.87;84.02
11888;BME280;6003;42.756;23.130;2022-11-20T03:07:48;156515.69;;;15.91;83.53
11888;BME280;6003;42.756;23.130;2022-11-20T03:10:15;156477.22;;;15.76;84.22
11888;BME280;6003;42.756;23.130;2022-11-20T03:12:42;156467.94;;;15.72;84.76
11888;BME280;6003;42.756;23.130;2022-11-20T03:15:09;156445.31;;;15.64;85.06
11888;BME280;6003;42.756;23.130;2022-11-20T03:17:38;156438.69;;;15.61;85.74
11888;BME280;6003;42.756;23.130;2022-11-20T03:20:06;156436.03;;;15.60;85.86
11888;BME280;6003;42.756;23.130;2022-11-20T03:22:34;156446.63;;;15.64;85.99
11888;BME280;6003;42.756;23.130;2022-11-20T03:25:01;156413.50;;;15.51;86.62
11888;BME280;6003;42.756;23.130;2022-11-20T03:27:32;156428.09;;;15.57;86.58
11888;BME280;6003;42.756;23.130;2022-11-20T03:29:59;156417.44;;;15.53;86.50
11888;BME280;6003;42.756;23.130;2022-11-20T03:32:26;156409.50;;;15.50;86.28
11888;BME280;6003;42.756;23.130;2022-11-20T03:34:55;156413.50;;;15.51;86.33
11888;BME280;6003;42.756;23.130;2022-11-20T03:37:22;156406.84;;;15.49;85.79
11888;BME280;6003;42.756;23.130;2022-11-20T03:39:49;156398.91;;;15.46;86.33
11888;BME280;6003;42.756;23.130;2022-11-20T03:42:16;156401.53;;;15.47;86.79
11888;BME280;6003;42.756;23.130;2022-11-20T03:44:56;156422.78;;;15.55;86.10
11888;BME280;6003;42.756;23.130;2022-11-20T03:47:23;156409.50;;;15.50;86.08
11888;BME280;6003;42.756;23.130;2022-11-20T03:49:50;156406.84;;;15.49;86.01
11888;BME280;6003;42.756;23.130;2022-11-20T03:52:18;156396.22;;;15.45;85.97
11888;BME280;6003;42.756;23.130;2022-11-20T03:54:48;156398.91;;;15.46;86.28
11888;BME280;6003;42.756;23.130;2022-11-20T03:57:15;156369.69;;;15.34;86.22
11888;BME280;6003;42.756;23.130;2022-11-20T03:59:42;156390.94;;;15.43;85.71
11888;BME280;6003;42.756;23.130;2022-11-20T04:02:09;156364.38;;;15.32;86.45
11888;BME280;6003;42.756;23.130;2022-11-20T04:04:36;156364.38;;;15.32;86.22
11888;BME280;6003;42.756;23.130;2022-11-20T04:07:03;156377.66;;;15.38;86.24
11888;BME280;6003;42.756;23.130;2022-11-20T04:09:32;156371.03;;;15.35;85.44
11888;BME280;6003;42.756;23.130;2022-11-20T04:11:59;156360.44;;;15.31;85.78
11888;BME280;6003;42.756;23.130;2022-11-20T04:14:26;156367.06;;;15.33;85.80
11888;BME280;6003;42.756;23.130;2022-11-20T04:16:52;156337.88;;;15.22;85.75
11888;BME280;6003;42.756;23.130;2022-11-20T04:19:19;156335.19;;;15.21;85.91
11888;BME280;6003;42.756;23.130;2022-11-20T04:21:46;156329.94;;;15.19;86.30
11888;BME280;6003;42.756;23.130;2022-11-20T04:24:13;156312.66;;;15.12;86.61
11888;BME280;6003;42.756;23.130;2022-11-20T04:26:42;156300.75;;;15.08;86.74
11888;BME280;6003;42.756;23.130;2022-11-20T04:29:10;156286.16;;;15.02;87.05
11888;BME280;6003;42.756;23.130;2022-11-20T04:31:37;156283.47;;;15.01;87.10
11888;BME280;6003;42.756;23.130;2022-11-20T04:34:06;156303.38;;;15.09;86.55
11888;BME280;6003;42.756;23.130;2022-11-20T04:36:33;156319.28;;;15.15;85.86
11888;BME280;6003;42.756;23.130;2022-11-20T04:39:01;156315.34;;;15.14;86.03
11888;BME280;6003;42.756;23.130;2022-11-20T04:41:31;156313.97;;;15.13;86.28
11888;BME280;6003;42.756;23.130;2022-11-20T04:44:13;156319.28;;;15.15;86.20
11888;BME280;6003;42.756;23.130;2022-11-20T04:46:41;156312.66;;;15.12;86.39
11888;BME280;6003;42.756;23.130;2022-11-20T04:49:08;156335.19;;;15.21;86.36
11888;BME280;6003;42.756;23.130;2022-11-20T04:51:37;156327.25;;;15.18;86.23
11888;BME280;6003;42.756;23.130;2022-11-20T04:54:04;156321.91;;;15.16;86.81
11888;BME280;6003;42.756;23.130;2022-11-20T04:56:31;156321.91;;;15.16;87.14
11888;BME280;6003;42.756;23.130;2022-11-20T04:59:00;156303.38;;;15.09;87.41
11888;BME280;6003;42.756;23.130;2022-11-20T05:01:31;156319.28;;;15.15;86.65
11888;BME280;6003;42.756;23.130;2022-11-20T05:03:58;156319.28;;;15.15;86.59
11888;BME280;6003;42.756;23.130;2022-11-20T05:06:25;156313.97;;;15.13;87.50
11888;BME280;6003;42.756;23.130;2022-11-20T05:08:52;156298.06;;;15.07;87.88
11888;BME280;6003;42.756;23.130;2022-11-20T05:11:20;156287.47;;;15.03;88.38
11888;BME280;6003;42.756;23.130;2022-11-20T05:13:48;156258.28;;;14.92;89.37
11888;BME280;6003;42.756;23.130;2022-11-20T05:16:16;156251.66;;;14.89;89.46
11888;BME280;6003;42.756;23.130;2022-11-20T05:18:45;156230.41;;;14.81;90.81
11888;BME280;6003;42.756;23.130;2022-11-20T05:21:12;156251.66;;;14.89;90.68
11888;BME280;6003;42.756;23.130;2022-11-20T05:23:39;156210.56;;;14.73;92.31
11888;BME280;6003;42.756;23.130;2022-11-20T05:26:08;156222.47;;;14.78;92.43
11888;BME280;6003;42.756;23.130;2022-11-20T05:28:38;156221.16;;;14.77;92.46
11888;BME280;6003;42.756;23.130;2022-11-20T05:31:06;156205.25;;;14.71;93.64
11888;BME280;6003;42.756;23.130;2022-11-20T05:33:33;156174.75;;;14.59;93.91
11888;BME280;6003;42.756;23.130;2022-11-20T05:36:01;156177.38;;;14.60;94.13
11888;BME280;6003;42.756;23.130;2022-11-20T05:38:28;156189.34;;;14.65;94.47
11888;BME280;6003;42.756;23.130;2022-11-20T05:41:03;156188.03;;;14.64;94.63
11888;BME280;6003;42.756;23.130;2022-11-20T05:43:31;156193.28;;;14.66;94.01
11888;BME280;6003;42.756;23.130;2022-11-20T05:45:58;156185.34;;;14.63;94.42
11888;BME280;6003;42.756;23.130;2022-11-20T05:48:25;156165.47;;;14.56;94.47
11888;BME280;6003;42.756;23.130;2022-11-20T05:50:52;156201.25;;;14.70;94.18
11888;BME280;6003;42.756;23.130;2022-11-20T05:53:20;156210.56;;;14.73;94.04
11888;BME280;6003;42.756;23.130;2022-11-20T05:55:56;156191.97;;;14.66;94.35
11888;BME280;6003;42.756;23.130;2022-11-20T05:58:23;156202.56;;;14.70;93.86
11888;BME280;6003;42.756;23.130;2022-11-20T06:00:49;156225.16;;;14.79;93.09
11888;BME280;6003;42.756;23.130;2022-11-20T06:03:16;156213.19;;;14.74;92.98
11888;BME280;6003;42.756;23.130;2022-11-20T06:05:43;156252.97;;;14.89;92.89
11888;BME280;6003;42.756;23.130;2022-11-20T06:08:10;156266.22;;;14.95;92.43
11888;BME280;6003;42.756;23.130;2022-11-20T06:10:38;156274.19;;;14.98;91.98
11888;BME280;6003;42.756;23.130;2022-11-20T06:13:05;156316.66;;;15.14;91.71
11888;BME280;6003;42.756;23.130;2022-11-20T06:15:32;156316.66;;;15.14;91.30
11888;BME280;6003;42.756;23.130;2022-11-20T06:17:59;156335.19;;;15.21;91.46
11888;BME280;6003;42.756;23.130;2022-11-20T06:20:25;156332.56;;;15.20;91.48
11888;BME280;6003;42.756;23.130;2022-11-20T06:22:52;156345.84;;;15.25;91.72
11888;BME280;6003;42.756;23.130;2022-11-20T06:25:19;156377.66;;;15.38;90.56
11888;BME280;6003;42.756;23.130;2022-11-20T06:27:48;156396.22;;;15.45;91.45
11888;BME280;6003;42.756;23.130;2022-11-20T06:30:15;156420.13;;;15.54;90.85
11888;BME280;6003;42.756;23.130;2022-11-20T06:32:42;156442.69;;;15.63;90.65
11888;BME280;6003;42.756;23.130;2022-11-20T06:35:09;156494.50;;;15.83;90.12
11888;BME280;6003;42.756;23.130;2022-11-20T06:37:36;156544.88;;;16.02;89.72
11888;BME280;6003;42.756;23.130;2022-11-20T06:40:04;156570.13;;;16.12;88.91
11888;BME280;6003;42.756;23.130;2022-11-20T06:42:32;156592.72;;;16.20;88.62
11888;BME280;6003;42.756;23.130;2022-11-20T06:45:09;156643.13;;;16.40;87.42
11888;BME280;6003;42.756;23.130;2022-11-20T06:47:37;156682.97;;;16.55;86.53
11888;BME280;6003;42.756;23.130;2022-11-20T06:50:05;156709.50;;;16.65;86.35
11888;BME280;6003;42.756;23.130;2022-11-20T06:52:35;156704.22;;;16.63;86.56
11888;BME280;6003;42.756;23.130;2022-11-20T06:55:02;156730.75;;;16.74;85.83
11888;BME280;6003;42.756;23.130;2022-11-20T06:57:29;156753.38;;;16.82;85.19
11888;BME280;6003;42.756;23.130;2022-11-20T06:59:56;156768.00;;;16.88;85.02
11888;BME280;6003;42.756;23.130;2022-11-20T07:02:25;156775.97;;;16.91;84.78
11888;BME280;6003;42.756;23.130;2022-11-20T07:04:55;156761.34;;;16.85;84.27
11888;BME280;6003;42.756;23.130;2022-11-20T07:07:22;156738.78;;;16.77;83.04
11888;BME280;6003;42.756;23.130;2022-11-20T07:09:49;156667.06;;;16.49;83.95
11888;BME280;6003;42.756;23.130;2022-11-20T07:12:16;156571.47;;;16.12;85.03
11888;BME280;6003;42.756;23.130;2022-11-20T07:14:43;156566.13;;;16.10;85.65
11888;BME280;6003;42.756;23.130;2022-11-20T07:17:10;156555.53;;;16.06;86.02
11888;BME280;6003;42.756;23.130;2022-11-20T07:19:39;156491.81;;;15.82;86.25
11888;BME280;6003;42.756;23.130;2022-11-20T07:22:06;156461.28;;;15.70;87.62
11888;BME280;6003;42.756;23.130;2022-11-20T07:24:33;156441.31;;;15.62;88.03
11888;BME280;6003;42.756;23.130;2022-11-20T07:27:00;156436.03;;;15.60;88.58
11888;BME280;6003;42.756;23.130;2022-11-20T07:29:27;156446.63;;;15.64;89.32
11888;BME280;6003;42.756;23.130;2022-11-20T07:31:54;156451.97;;;15.66;88.05
11888;BME280;6003;42.756;23.130;2022-11-20T07:34:21;156444.00;;;15.63;87.95
11888;BME280;6003;42.756;23.130;2022-11-20T07:36:50;156462.59;;;15.70;88.88
11888;BME280;6003;42.756;23.130;2022-11-20T07:39:19;156451.97;;;15.66;89.76
11888;BME280;6003;42.756;23.130;2022-11-20T07:41:46;156459.97;;;15.69;89.67
11888;BME280;6003;42.756;23.130;2022-11-20T07:44:13;156470.56;;;15.73;90.20
11888;BME280;6003;42.756;23.130;2022-11-20T07:46:40;156478.53;;;15.76;90.10
11888;BME280;6003;42.756;23.130;2022-11-20T07:49:07;156499.75;;;15.85;89.30
11888;BME280;6003;42.756;23.130;2022-11-20T07:51:34;156491.81;;;15.82;88.60
11888;BME280;6003;42.756;23.130;2022-11-20T07:54:02;156494.50;;;15.83;88.38
11888;BME280;6003;42.756;23.130;2022-11-20T07:56:29;156510.41;;;15.89;88.58
11888;BME280;6003;42.756;23.130;2022-11-20T07:58:56;156523.66;;;15.94;87.67
11888;BME280;6003;42.756;23.130;2022-11-20T08:01:23;156521.00;;;15.93;87.82
11888;BME280;6003;42.756;23.130;2022-11-20T08:03:50;156539.63;;;16.00;87.84
11888;BME280;6003;42.756;23.130;2022-11-20T08:06:17;156555.53;;;16.06;87.37
11888;BME280;6003;42.756;23.130;2022-11-20T08:08:45;156551.53;;;16.05;87.04
11888;BME280;6003;42.756;23.130;2022-11-20T08:11:13;156595.34;;;16.21;86.94
11888;BME280;6003;42.756;23.130;2022-11-20T08:13:58;156651.13;;;16.43;87.17
11888;BME280;6003;42.756;23.130;2022-11-20T08:16:40;156717.47;;;16.68;87.74
11888;BME280;6003;42.756;23.130;2022-11-20T08:19:07;156738.78;;;16.77;87.97
11888;BME280;6003;42.756;23.130;2022-11-20T08:21:34;156681.66;;;16.55;89.09
11888;BME280;6003;42.756;23.130;2022-11-20T08:24:01;156637.84;;;16.38;91.28
11888;BME280;6003;42.756;23.130;2022-11-20T08:26:30;156617.91;;;16.30;93.64
11888;BME280;6003;42.756;23.130;2022-11-20T08:28:57;156592.72;;;16.20;94.05
11888;BME280;6003;42.756;23.130;2022-11-20T08:31:26;156552.84;;;16.05;95.26
11888;BME280;6003;42.756;23.130;2022-11-20T08:33:53;156506.41;;;15.87;96.72
11888;BME280;6003;42.756;23.130;2022-11-20T08:36:21;156459.97;;;15.69;98.20
11888;BME280;6003;42.756;23.130;2022-11-20T08:38:49;156389.63;;;15.42;99.00
11888;BME280;6003;42.756;23.130;2022-11-20T08:41:16;156339.19;;;15.23;99.75
11888;BME280;6003;42.756;23.130;2022-11-20T08:43:55;156327.25;;;15.18;100.00
11888;BME280;6003;42.756;23.130;2022-11-20T08:46:23;156311.31;;;15.12;100.00
11888;BME280;6003;42.756;23.130;2022-11-20T08:48:50;156271.56;;;14.97;100.00
11888;BME280;6003;42.756;23.130;2022-11-20T08:51:18;156271.56;;;14.97;100.00
11888;BME280;6003;42.756;23.130;2022-11-20T08:53:46;156227.78;;;14.80;100.00
11888;BME280;6003;42.756;23.130;2022-11-20T08:56:14;156226.47;;;14.79;100.00
11888;BME280;6003;42.756;23.130;2022-11-20T08:58:40;156221.16;;;14.77;100.00
11888;BME280;6003;42.756;23.130;2022-11-20T09:01:09;156221.16;;;14.77;100.00
11888;BME280;6003;42.756;23.130;2022-11-20T09:03:35;156173.44;;;14.59;100.00
11888;BME280;6003;42.756;23.130;2022-11-20T09:06:04;156185.34;;;14.63;100.00
11888;BME280;6003;42.756;23.130;2022-11-20T09:08:32;156169.44;;;14.57;100.00
11888;BME280;6003;42.756;23.130;2022-11-20T09:11:00;156165.47;;;14.56;100.00
11888;BME280;6003;42.756;23.130;2022-11-20T09:13:28;156174.75;;;14.59;100.00
11888;BME280;6003;42.756;23.130;2022-11-20T09:15:56;156162.81;;;14.55;100.00
11888;BME280;6003;42.756;23.130;2022-11-20T09:18:26;156169.44;;;14.57;100.00
11888;BME280;6003;42.756;23.130;2022-11-20T09:20:56;156157.47;;;14.53;100.00
11888;BME280;6003;42.756;23.130;2022-11-20T09:23:24;156186.66;;;14.64;100.00
11888;BME280;6003;42.756;23.130;2022-11-20T09:25:51;156199.94;;;14.69;100.00
11888;BME280;6003;42.756;23.130;2022-11-20T09:28:18;156221.16;;;14.77;100.00
11888;BME280;6003;42.756;23.130;2022-11-20T09:30:44;156245.00;;;14.86;100.00
11888;BME280;6003;42.756;23.130;2022-11-20T09:33:11;156284.81;;;15.02;100.00
11888;BME280;6003;42.756;23.130;2022-11-20T09:35:40;156324.59;;;15.17;100.00
11888;BME280;6003;42.756;23.130;2022-11-20T09:38:09;156361.75;;;15.31;100.00
11888;BME280;6003;42.756;23.130;2022-11-20T09:40:39;156416.13;;;15.52;100.00
11888;BME280;6003;42.756;23.130;2022-11-20T09:43:12;156518.38;;;15.92;100.00
11888;BME280;6003;42.756;23.130;2022-11-20T09:45:53;156609.94;;;16.27;99.99
11888;BME280;6003;42.756;23.130;2022-11-20T09:48:42;156667.06;;;16.49;97.25
11888;BME280;6003;42.756;23.130;2022-11-20T09:51:30;156684.28;;;16.56;95.96
11888;BME280;6003;42.756;23.130;2022-11-20T09:54:11;156702.88;;;16.63;94.94
11888;BME280;6003;42.756;23.130;2022-11-20T09:56:45;156721.47;;;16.70;94.61
11888;BME280;6003;42.756;23.130;2022-11-20T09:59:26;156693.59;;;16.59;93.95
11888;BME280;6003;42.756;23.130;2022-11-20T10:01:56;156676.34;;;16.53;93.06
11888;BME280;6003;42.756;23.130;2022-11-20T10:04:24;156698.91;;;16.61;93.74
11888;BME280;6003;42.756;23.130;2022-11-20T10:06:59;156716.16;;;16.68;93.51
11888;BME280;6003;42.756;23.130;2022-11-20T10:09:31;156748.13;;;16.80;94.02
11888;BME280;6003;42.756;23.130;2022-11-20T10:12:07;156797.22;;;16.99;92.36
11888;BME280;6003;42.756;23.130;2022-11-20T10:14:45;156855.69;;;17.22;91.11
11888;BME280;6003;42.756;23.130;2022-11-20T10:17:22;156895.53;;;17.37;91.28
11888;BME280;6003;42.756;23.130;2022-11-20T10:20:07;156862.31;;;17.24;90.82
11888;BME280;6003;42.756;23.130;2022-11-20T10:22:53;156802.56;;;17.01;91.58
11888;BME280;6003;42.756;23.130;2022-11-20T10:25:33;156766.69;;;16.87;93.46
11888;BME280;6003;42.756;23.130;2022-11-20T10:28:11;156733.44;;;16.75;95.01
11888;BME280;6003;42.756;23.130;2022-11-20T10:30:44;156680.28;;;16.54;96.00
11888;BME280;6003;42.756;23.130;2022-11-20T10:33:16;156655.09;;;16.44;97.48
11888;BME280;6003;42.756;23.130;2022-11-20T10:35:49;156590.00;;;16.19;98.07
11888;BME280;6003;42.756;23.130;2022-11-20T10:38:23;156550.22;;;16.04;98.66
11888;BME280;6003;42.756;23.130;2022-11-20T10:40:54;156502.44;;;15.86;98.73
11888;BME280;6003;42.756;23.130;2022-11-20T10:43:44;156481.22;;;15.77;99.52
11888;BME280;6003;42.756;23.130;2022-11-20T10:46:14;156465.28;;;15.71;96.68
11888;BME280;6003;42.756;23.130;2022-11-20T10:48:43;156437.38;;;15.61;97.03
11888;BME280;6003;42.756;23.130;2022-11-20T10:51:21;156375.03;;;15.37;95.98
11888;BME280;6003;42.756;23.130;2022-11-20T10:54:00;156294.09;;;15.05;94.79
11888;BME280;6003;42.756;23.130;2022-11-20T10:56:34;156166.81;;;14.56;94.06
11888;BME280;6003;42.756;23.130;2022-11-20T10:59:14;156075.25;;;14.21;94.62
11888;BME280;6003;42.756;23.130;2022-11-20T11:01:48;156016.97;;;13.98;93.55
11888;BME280;6003;42.756;23.130;2022-11-20T11:04:28;155967.91;;;13.80;94.70
11888;BME280;6003;42.756;23.130;2022-11-20T11:07:01;155950.69;;;13.73;94.90
11888;BME280;6003;42.756;23.130;2022-11-20T11:09:37;155895.03;;;13.51;96.27
11888;BME280;6003;42.756;23.130;2022-11-20T11:12:07;155871.19;;;13.42;95.27
11888;BME280;6003;42.756;23.130;2022-11-20T11:14:42;155823.47;;;13.24;98.40
11888;BME280;6003;42.756;23.130;2022-11-20T11:17:21;155827.47;;;13.25;100.00
11888;BME280;6003;42.756;23.130;2022-11-20T11:19:57;155791.66;;;13.12;100.00
11888;BME280;6003;42.756;23.130;2022-11-20T11:22:25;155721.50;;;12.84;100.00
11888;BME280;6003;42.756;23.130;2022-11-20T11:24:53;155688.41;;;12.72;100.00
11888;BME280;6003;42.756;23.130;2022-11-20T11:27:20;155640.72;;;12.53;100.00
11888;BME280;6003;42.756;23.130;2022-11-20T11:29:47;155639.41;;;12.53;100.00
11888;BME280;6003;42.756;23.130;2022-11-20T11:32:17;155644.72;;;12.55;100.00
11888;BME280;6003;42.756;23.130;2022-11-20T11:34:58;155656.59;;;12.59;100.00
11888;BME280;6003;42.756;23.130;2022-11-20T11:37:29;155652.66;;;12.58;100.00
11888;BME280;6003;42.756;23.130;2022-11-20T11:40:01;155659.28;;;12.60;100.00
11888;BME280;6003;42.756;23.130;2022-11-20T11:42:28;155643.34;;;12.54;100.00
11888;BME280;6003;42.756;23.130;2022-11-20T11:44:59;155660.59;;;12.61;100.00
11888;BME280;6003;42.756;23.130;2022-11-20T11:47:32;155661.91;;;12.61;100.00
11888;BME280;6003;42.756;23.130;2022-11-20T11:50:14;155669.84;;;12.64;100.00
11888;BME280;6003;42.756;23.130;2022-11-20T11:52:45;155673.84;;;12.66;100.00
11888;BME280;6003;42.756;23.130;2022-11-20T11:55:18;155687.03;;;12.71;100.00
11888;BME280;6003;42.756;23.130;2022-11-20T11:57:52;155675.16;;;12.67;100.00
11888;BME280;6003;42.756;23.130;2022-11-20T12:00:22;155656.59;;;12.59;100.00
11888;BME280;6003;42.756;23.130;2022-11-20T12:02:59;155652.66;;;12.58;100.00
11888;BME280;6003;42.756;23.130;2022-11-20T12:05:36;155624.84;;;12.47;100.00
11888;BME280;6003;42.756;23.130;2022-11-20T12:08:09;155611.59;;;12.42;100.00
11888;BME280;6003;42.756;23.130;2022-11-20T12:10:46;155610.28;;;12.41;100.00
11888;BME280;6003;42.756;23.130;2022-11-20T12:13:26;155608.97;;;12.41;100.00
11888;BME280;6003;42.756;23.130;2022-11-20T12:15:58;155583.78;;;12.31;100.00
11888;BME280;6003;42.756;23.130;2022-11-20T12:18:25;155586.47;;;12.32;100.00
11888;BME280;6003;42.756;23.130;2022-11-20T12:21:03;155610.28;;;12.41;100.00
11888;BME280;6003;42.756;23.130;2022-11-20T12:23:44;155610.28;;;12.41;100.00
11888;BME280;6003;42.756;23.130;2022-11-20T12:26:26;155586.47;;;12.32;100.00
11888;BME280;6003;42.756;23.130;2022-11-20T12:29:06;155590.41;;;12.34;100.00
11888;BME280;6003;42.756;23.130;2022-11-20T12:31:47;155577.22;;;12.29;100.00
11888;BME280;6003;42.756;23.130;2022-11-20T12:34:28;155598.34;;;12.37;100.00
11888;BME280;6003;42.756;23.130;2022-11-20T12:37:03;155622.22;;;12.46;100.00
11888;BME280;6003;42.756;23.130;2022-11-20T12:39:41;155632.78;;;12.50;100.00
11888;BME280;6003;42.756;23.130;2022-11-20T12:42:27;155643.34;;;12.54;100.00
11888;BME280;6003;42.756;23.130;2022-11-20T12:48:26;155664.53;;;12.62;100.00
11888;BME280;6003;42.756;23.130;2022-11-20T12:51:09;155669.84;;;12.64;100.00
11888;BME280;6003;42.756;23.130;2022-11-20T12:53:49;155688.41;;;12.72;100.00
11888;BME280;6003;42.756;23.130;2022-11-20T12:56:27;155691.03;;;12.73;100.00
11888;BME280;6003;42.756;23.130;2022-11-20T12:59:06;155689.72;;;12.72;100.00
11888;BME280;6003;42.756;23.130;2022-11-20T13:01:40;155713.53;;;12.81;100.00
11888;BME280;6003;42.756;23.130;2022-11-20T13:04:19;155734.75;;;12.90;100.00
11888;BME280;6003;42.756;23.130;2022-11-20T13:06:50;155757.25;;;12.98;100.00
11888;BME280;6003;42.756;23.130;2022-11-20T13:09:19;155746.63;;;12.94;100.00